Terminal Aerodrome Forecast
Issued by NWS Cleveland, OH

Home | Current Version | Previous Version | Graphics & Text | Print | Product List | Glossary On
Versions: 1 2 3 4 5 6 7 8 9 10 11 12 13 14 15 16 17 18 19 20 21 22
065
FTUS41 KCLE 071729
TAFCAK
TAF
KCAK 071729Z 0718/0818 20012KT P6SM SCT250
     FM080000 19010KT P6SM BKN120
     FM080400 19006KT P6SM SCT045 OVC100
      TEMPO 0804/0808 BKN045
     FM080800 18005KT P6SM -RA OVC045
      TEMPO 0808/0810 5SM -RASN BR OVC025
     FM081000 18006KT 3SM -RASN BR OVC010
     FM081400 18006KT 2SM -RASN BR OVC006=

USA.gov is the U.S. government's official web portal to all federal, state and local government web resources and services.